Station: EBLB - 19/09/2020 08:25Z (il y a 28 minutes)
EBLB 190825Z AUTO 19003KT 9999 NCD 19/09 Q1019 BLU
Vent du 190º - 3 kt
Visibilité > 10 km
Pas de nuages détectés
Température: +19ºC - Point de rosée: +09ºC - QNH: 1019 hPa
Code couleur militaire: BLU (conditions VMC)